sensor_id;sensor_type;location;lat;lon;timestamp;P1;durP1;ratioP1;P2;durP2;ratioP2
11839;SDS011;5979;50.800;4.904;2023-03-08T00:01:09;18.33;;;12.87;;
11839;SDS011;5979;50.800;4.904;2023-03-08T00:03:36;19.47;;;13.97;;
11839;SDS011;5979;50.800;4.904;2023-03-08T00:06:05;18.40;;;13.00;;
11839;SDS011;5979;50.800;4.904;2023-03-08T00:08:33;19.83;;;13.00;;
11839;SDS011;5979;50.800;4.904;2023-03-08T00:10:59;17.97;;;12.33;;
11839;SDS011;5979;50.800;4.904;2023-03-08T00:13:28;18.33;;;13.27;;
11839;SDS011;5979;50.800;4.904;2023-03-08T00:15:57;18.10;;;13.27;;
11839;SDS011;5979;50.800;4.904;2023-03-08T00:18:24;20.27;;;14.17;;
11839;SDS011;5979;50.800;4.904;2023-03-08T00:20:57;18.90;;;13.40;;
11839;SDS011;5979;50.800;4.904;2023-03-08T00:23:23;18.00;;;13.43;;
11839;SDS011;5979;50.800;4.904;2023-03-08T00:25:52;21.20;;;14.17;;
11839;SDS011;5979;50.800;4.904;2023-03-08T00:28:18;18.77;;;12.73;;
11839;SDS011;5979;50.800;4.904;2023-03-08T00:30:44;20.67;;;14.17;;
11839;SDS011;5979;50.800;4.904;2023-03-08T00:33:18;22.70;;;13.57;;
11839;SDS011;5979;50.800;4.904;2023-03-08T00:35:44;18.80;;;12.80;;
11839;SDS011;5979;50.800;4.904;2023-03-08T00:38:26;21.43;;;14.27;;
11839;SDS011;5979;50.800;4.904;2023-03-08T00:40:52;20.33;;;13.50;;
11839;SDS011;5979;50.800;4.904;2023-03-08T00:43:18;18.73;;;12.90;;
11839;SDS011;5979;50.800;4.904;2023-03-08T00:45:44;17.30;;;12.50;;
11839;SDS011;5979;50.800;4.904;2023-03-08T00:48:10;20.97;;;13.33;;
11839;SDS011;5979;50.800;4.904;2023-03-08T00:50:36;17.40;;;12.07;;
11839;SDS011;5979;50.800;4.904;2023-03-08T00:53:02;18.40;;;12.60;;
11839;SDS011;5979;50.800;4.904;2023-03-08T00:55:28;18.17;;;12.87;;
11839;SDS011;5979;50.800;4.904;2023-03-08T00:57:54;16.40;;;11.53;;
11839;SDS011;5979;50.800;4.904;2023-03-08T01:00:19;18.17;;;12.33;;
11839;SDS011;5979;50.800;4.904;2023-03-08T01:02:45;16.23;;;11.37;;
11839;SDS011;5979;50.800;4.904;2023-03-08T01:05:11;14.13;;;10.83;;
11839;SDS011;5979;50.800;4.904;2023-03-08T01:07:38;16.87;;;11.43;;
11839;SDS011;5979;50.800;4.904;2023-03-08T01:10:04;15.47;;;10.87;;
11839;SDS011;5979;50.800;4.904;2023-03-08T01:12:33;15.93;;;10.93;;
11839;SDS011;5979;50.800;4.904;2023-03-08T01:14:59;13.50;;;9.97;;
11839;SDS011;5979;50.800;4.904;2023-03-08T01:17:25;14.80;;;10.80;;
11839;SDS011;5979;50.800;4.904;2023-03-08T01:19:51;14.73;;;10.33;;
11839;SDS011;5979;50.800;4.904;2023-03-08T01:22:17;13.40;;;10.27;;
11839;SDS011;5979;50.800;4.904;2023-03-08T01:24:46;14.90;;;10.77;;
11839;SDS011;5979;50.800;4.904;2023-03-08T01:27:12;13.90;;;10.23;;
11839;SDS011;5979;50.800;4.904;2023-03-08T01:29:40;15.67;;;10.70;;
11839;SDS011;5979;50.800;4.904;2023-03-08T01:32:06;17.40;;;11.73;;
11839;SDS011;5979;50.800;4.904;2023-03-08T01:34:35;17.90;;;11.80;;
11839;SDS011;5979;50.800;4.904;2023-03-08T01:37:04;16.73;;;12.13;;
11839;SDS011;5979;50.800;4.904;2023-03-08T01:39:30;17.33;;;11.37;;
11839;SDS011;5979;50.800;4.904;2023-03-08T01:41:56;15.50;;;10.97;;
11839;SDS011;5979;50.800;4.904;2023-03-08T01:44:22;14.83;;;10.60;;
11839;SDS011;5979;50.800;4.904;2023-03-08T01:46:48;16.03;;;11.27;;
11839;SDS011;5979;50.800;4.904;2023-03-08T01:51:57;15.33;;;10.40;;
11839;SDS011;5979;50.800;4.904;2023-03-08T01:54:35;14.43;;;10.20;;
11839;SDS011;5979;50.800;4.904;2023-03-08T01:57:04;13.37;;;9.23;;
11839;SDS011;5979;50.800;4.904;2023-03-08T01:59:46;13.47;;;9.23;;
11839;SDS011;5979;50.800;4.904;2023-03-08T02:02:13;10.90;;;7.97;;
11839;SDS011;5979;50.800;4.904;2023-03-08T02:04:42;10.87;;;8.80;;
11839;SDS011;5979;50.800;4.904;2023-03-08T02:07:08;10.00;;;7.43;;
11839;SDS011;5979;50.800;4.904;2023-03-08T02:09:34;10.73;;;7.47;;
11839;SDS011;5979;50.800;4.904;2023-03-08T02:12:00;9.07;;;7.53;;
11839;SDS011;5979;50.800;4.904;2023-03-08T02:14:31;9.77;;;7.57;;
11839;SDS011;5979;50.800;4.904;2023-03-08T02:16:57;8.37;;;6.73;;
11839;SDS011;5979;50.800;4.904;2023-03-08T02:19:25;8.20;;;6.30;;
11839;SDS011;5979;50.800;4.904;2023-03-08T02:22:06;8.53;;;6.50;;
11839;SDS011;5979;50.800;4.904;2023-03-08T02:24:33;8.73;;;6.23;;
11839;SDS011;5979;50.800;4.904;2023-03-08T02:27:02;8.30;;;6.67;;
11839;SDS011;5979;50.800;4.904;2023-03-08T02:29:31;7.87;;;6.77;;
11839;SDS011;5979;50.800;4.904;2023-03-08T02:31:57;8.33;;;6.60;;
11839;SDS011;5979;50.800;4.904;2023-03-08T02:34:22;7.53;;;6.57;;
11839;SDS011;5979;50.800;4.904;2023-03-08T02:36:48;9.40;;;6.67;;
11839;SDS011;5979;50.800;4.904;2023-03-08T02:39:14;9.10;;;7.00;;
11839;SDS011;5979;50.800;4.904;2023-03-08T02:41:39;7.90;;;6.37;;
11839;SDS011;5979;50.800;4.904;2023-03-08T02:44:05;6.97;;;6.27;;
11839;SDS011;5979;50.800;4.904;2023-03-08T02:46:31;8.73;;;6.73;;
11839;SDS011;5979;50.800;4.904;2023-03-08T02:48:58;8.67;;;6.57;;
11839;SDS011;5979;50.800;4.904;2023-03-08T02:51:23;8.20;;;6.53;;
11839;SDS011;5979;50.800;4.904;2023-03-08T02:53:49;8.17;;;6.47;;
11839;SDS011;5979;50.800;4.904;2023-03-08T02:56:15;8.80;;;6.03;;
11839;SDS011;5979;50.800;4.904;2023-03-08T02:58:41;8.20;;;6.20;;
11839;SDS011;5979;50.800;4.904;2023-03-08T03:01:12;7.13;;;5.87;;
11839;SDS011;5979;50.800;4.904;2023-03-08T03:03:39;6.97;;;5.93;;
11839;SDS011;5979;50.800;4.904;2023-03-08T03:06:12;8.40;;;6.20;;
11839;SDS011;5979;50.800;4.904;2023-03-08T03:08:39;6.20;;;5.60;;
11839;SDS011;5979;50.800;4.904;2023-03-08T03:13:38;6.10;;;5.33;;
11839;SDS011;5979;50.800;4.904;2023-03-08T03:16:05;4.87;;;4.40;;
11839;SDS011;5979;50.800;4.904;2023-03-08T03:18:32;4.80;;;4.40;;
11839;SDS011;5979;50.800;4.904;2023-03-08T03:21:08;5.23;;;4.73;;
11839;SDS011;5979;50.800;4.904;2023-03-08T03:23:36;5.10;;;4.33;;
11839;SDS011;5979;50.800;4.904;2023-03-08T03:26:03;5.33;;;4.80;;
11839;SDS011;5979;50.800;4.904;2023-03-08T03:28:34;8.83;;;6.93;;
11839;SDS011;5979;50.800;4.904;2023-03-08T03:30:59;10.53;;;7.23;;
11839;SDS011;5979;50.800;4.904;2023-03-08T03:33:26;11.83;;;8.80;;
11839;SDS011;5979;50.800;4.904;2023-03-08T03:35:52;12.20;;;9.43;;
11839;SDS011;5979;50.800;4.904;2023-03-08T03:38:18;12.83;;;9.30;;
11839;SDS011;5979;50.800;4.904;2023-03-08T03:40:43;14.33;;;10.27;;
11839;SDS011;5979;50.800;4.904;2023-03-08T03:43:09;14.17;;;9.87;;
11839;SDS011;5979;50.800;4.904;2023-03-08T03:45:35;15.37;;;10.00;;
11839;SDS011;5979;50.800;4.904;2023-03-08T03:48:00;13.00;;;8.43;;
11839;SDS011;5979;50.800;4.904;2023-03-08T03:50:26;15.20;;;10.27;;
11839;SDS011;5979;50.800;4.904;2023-03-08T03:52:52;16.50;;;10.23;;
11839;SDS011;5979;50.800;4.904;2023-03-08T03:55:17;17.00;;;11.00;;
11839;SDS011;5979;50.800;4.904;2023-03-08T03:57:43;15.40;;;10.43;;
11839;SDS011;5979;50.800;4.904;2023-03-08T04:00:09;14.27;;;11.07;;
11839;SDS011;5979;50.800;4.904;2023-03-08T04:02:35;14.70;;;10.03;;
11839;SDS011;5979;50.800;4.904;2023-03-08T04:05:01;14.67;;;10.57;;
11839;SDS011;5979;50.800;4.904;2023-03-08T04:07:26;18.03;;;11.03;;
11839;SDS011;5979;50.800;4.904;2023-03-08T04:09:52;16.30;;;10.83;;
11839;SDS011;5979;50.800;4.904;2023-03-08T04:12:17;17.20;;;11.03;;
11839;SDS011;5979;50.800;4.904;2023-03-08T04:14:43;12.30;;;9.20;;
11839;SDS011;5979;50.800;4.904;2023-03-08T04:17:09;15.53;;;10.27;;
11839;SDS011;5979;50.800;4.904;2023-03-08T04:19:35;12.80;;;8.67;;
11839;SDS011;5979;50.800;4.904;2023-03-08T04:22:00;12.43;;;7.43;;
11839;SDS011;5979;50.800;4.904;2023-03-08T04:24:26;10.37;;;8.10;;
11839;SDS011;5979;50.800;4.904;2023-03-08T04:26:52;10.53;;;7.97;;
11839;SDS011;5979;50.800;4.904;2023-03-08T04:29:17;9.57;;;8.37;;
11839;SDS011;5979;50.800;4.904;2023-03-08T04:31:43;9.77;;;8.07;;
11839;SDS011;5979;50.800;4.904;2023-03-08T04:34:09;9.80;;;6.93;;
11839;SDS011;5979;50.800;4.904;2023-03-08T04:36:35;9.17;;;6.67;;
11839;SDS011;5979;50.800;4.904;2023-03-08T04:48:50;7.43;;;5.23;;
11839;SDS011;5979;50.800;4.904;2023-03-08T04:51:21;7.10;;;5.53;;
11839;SDS011;5979;50.800;4.904;2023-03-08T04:53:48;5.97;;;5.23;;
11839;SDS011;5979;50.800;4.904;2023-03-08T04:56:14;6.37;;;4.97;;
11839;SDS011;5979;50.800;4.904;2023-03-08T04:58:41;5.67;;;4.83;;
11839;SDS011;5979;50.800;4.904;2023-03-08T05:01:10;5.80;;;5.20;;
11839;SDS011;5979;50.800;4.904;2023-03-08T05:03:37;6.60;;;5.07;;
11839;SDS011;5979;50.800;4.904;2023-03-08T05:06:03;5.70;;;5.10;;
11839;SDS011;5979;50.800;4.904;2023-03-08T05:08:30;6.97;;;5.83;;
11839;SDS011;5979;50.800;4.904;2023-03-08T05:10:56;10.50;;;6.40;;
11839;SDS011;5979;50.800;4.904;2023-03-08T05:13:27;9.20;;;6.50;;
11839;SDS011;5979;50.800;4.904;2023-03-08T05:15:55;8.97;;;6.60;;
11839;SDS011;5979;50.800;4.904;2023-03-08T05:18:21;9.77;;;7.60;;
11839;SDS011;5979;50.800;4.904;2023-03-08T05:20:57;8.83;;;7.53;;
11839;SDS011;5979;50.800;4.904;2023-03-08T05:23:24;12.00;;;7.67;;
11839;SDS011;5979;50.800;4.904;2023-03-08T05:25:53;10.97;;;8.73;;
11839;SDS011;5979;50.800;4.904;2023-03-08T05:28:20;11.73;;;9.43;;
11839;SDS011;5979;50.800;4.904;2023-03-08T05:30:47;11.87;;;9.47;;
11839;SDS011;5979;50.800;4.904;2023-03-08T05:33:17;11.60;;;8.77;;
11839;SDS011;5979;50.800;4.904;2023-03-08T05:35:43;12.77;;;9.10;;
11839;SDS011;5979;50.800;4.904;2023-03-08T05:38:17;15.03;;;9.90;;
11839;SDS011;5979;50.800;4.904;2023-03-08T05:40:43;14.27;;;10.50;;
11839;SDS011;5979;50.800;4.904;2023-03-08T05:43:08;13.17;;;9.93;;
11839;SDS011;5979;50.800;4.904;2023-03-08T05:45:34;14.70;;;10.47;;
11839;SDS011;5979;50.800;4.904;2023-03-08T05:48:00;13.97;;;10.63;;
11839;SDS011;5979;50.800;4.904;2023-03-08T05:50:25;13.77;;;10.17;;
11839;SDS011;5979;50.800;4.904;2023-03-08T05:52:51;17.53;;;11.40;;
11839;SDS011;5979;50.800;4.904;2023-03-08T05:55:17;14.40;;;9.90;;
11839;SDS011;5979;50.800;4.904;2023-03-08T05:57:42;12.93;;;9.83;;
11839;SDS011;5979;50.800;4.904;2023-03-08T06:00:08;17.77;;;10.40;;
11839;SDS011;5979;50.800;4.904;2023-03-08T06:02:34;12.07;;;8.40;;
11839;SDS011;5979;50.800;4.904;2023-03-08T06:05:00;12.97;;;9.63;;
11839;SDS011;5979;50.800;4.904;2023-03-08T06:07:26;13.97;;;9.50;;
11839;SDS011;5979;50.800;4.904;2023-03-08T06:09:51;13.47;;;9.77;;
11839;SDS011;5979;50.800;4.904;2023-03-08T06:12:18;13.33;;;9.47;;
11839;SDS011;5979;50.800;4.904;2023-03-08T06:14:44;11.23;;;8.90;;
11839;SDS011;5979;50.800;4.904;2023-03-08T06:17:10;12.07;;;8.97;;
11839;SDS011;5979;50.800;4.904;2023-03-08T06:19:35;11.13;;;8.90;;
11839;SDS011;5979;50.800;4.904;2023-03-08T06:22:01;11.97;;;9.57;;
11839;SDS011;5979;50.800;4.904;2023-03-08T06:24:27;12.77;;;9.50;;
11839;SDS011;5979;50.800;4.904;2023-03-08T06:26:52;12.10;;;8.90;;
11839;SDS011;5979;50.800;4.904;2023-03-08T06:29:19;11.10;;;9.17;;
11839;SDS011;5979;50.800;4.904;2023-03-08T06:31:45;11.53;;;8.87;;
11839;SDS011;5979;50.800;4.904;2023-03-08T06:34:11;11.07;;;9.23;;
11839;SDS011;5979;50.800;4.904;2023-03-08T06:36:37;11.83;;;8.97;;
11839;SDS011;5979;50.800;4.904;2023-03-08T06:39:03;12.60;;;9.40;;
11839;SDS011;5979;50.800;4.904;2023-03-08T06:41:31;9.63;;;8.57;;
11839;SDS011;5979;50.800;4.904;2023-03-08T06:43:57;11.20;;;9.53;;
11839;SDS011;5979;50.800;4.904;2023-03-08T06:46:23;12.50;;;9.20;;
11839;SDS011;5979;50.800;4.904;2023-03-08T06:48:49;11.50;;;9.50;;
11839;SDS011;5979;50.800;4.904;2023-03-08T06:51:15;11.60;;;9.53;;
11839;SDS011;5979;50.800;4.904;2023-03-08T06:53:41;10.27;;;8.37;;
11839;SDS011;5979;50.800;4.904;2023-03-08T06:56:07;11.40;;;9.10;;
11839;SDS011;5979;50.800;4.904;2023-03-08T06:58:35;11.13;;;9.13;;
11839;SDS011;5979;50.800;4.904;2023-03-08T07:01:01;11.30;;;9.10;;
11839;SDS011;5979;50.800;4.904;2023-03-08T07:03:30;13.23;;;9.37;;
11839;SDS011;5979;50.800;4.904;2023-03-08T07:05:59;11.13;;;8.80;;
11839;SDS011;5979;50.800;4.904;2023-03-08T07:08:27;12.63;;;9.50;;
11839;SDS011;5979;50.800;4.904;2023-03-08T07:10:53;11.73;;;9.20;;
11839;SDS011;5979;50.800;4.904;2023-03-08T07:13:18;13.40;;;10.10;;
11839;SDS011;5979;50.800;4.904;2023-03-08T07:15:47;16.03;;;10.70;;
11839;SDS011;5979;50.800;4.904;2023-03-08T07:18:14;14.93;;;9.90;;
11839;SDS011;5979;50.800;4.904;2023-03-08T07:20:39;14.10;;;10.10;;
11839;SDS011;5979;50.800;4.904;2023-03-08T07:23:05;14.70;;;10.20;;
11839;SDS011;5979;50.800;4.904;2023-03-08T07:25:31;12.43;;;9.30;;
11839;SDS011;5979;50.800;4.904;2023-03-08T07:27:59;16.20;;;10.53;;
11839;SDS011;5979;50.800;4.904;2023-03-08T07:30:25;16.13;;;11.57;;
11839;SDS011;5979;50.800;4.904;2023-03-08T07:32:52;15.57;;;11.13;;
11839;SDS011;5979;50.800;4.904;2023-03-08T07:35:18;15.47;;;10.90;;
11839;SDS011;5979;50.800;4.904;2023-03-08T07:37:44;16.90;;;11.23;;
11839;SDS011;5979;50.800;4.904;2023-03-08T07:40:11;15.47;;;11.27;;
11839;SDS011;5979;50.800;4.904;2023-03-08T07:42:39;13.80;;;10.40;;
11839;SDS011;5979;50.800;4.904;2023-03-08T07:45:05;14.77;;;10.00;;
11839;SDS011;5979;50.800;4.904;2023-03-08T07:47:31;14.27;;;9.93;;
11839;SDS011;5979;50.800;4.904;2023-03-08T07:49:57;15.00;;;10.33;;
11839;SDS011;5979;50.800;4.904;2023-03-08T07:52:27;13.57;;;9.47;;
11839;SDS011;5979;50.800;4.904;2023-03-08T07:54:55;13.87;;;10.10;;
11839;SDS011;5979;50.800;4.904;2023-03-08T07:57:22;14.30;;;9.40;;
11839;SDS011;5979;50.800;4.904;2023-03-08T07:59:51;15.43;;;10.00;;
11839;SDS011;5979;50.800;4.904;2023-03-08T08:02:16;13.70;;;9.53;;
11839;SDS011;5979;50.800;4.904;2023-03-08T08:04:42;12.57;;;9.50;;
11839;SDS011;5979;50.800;4.904;2023-03-08T08:07:12;13.87;;;10.07;;
11839;SDS011;5979;50.800;4.904;2023-03-08T08:09:39;13.87;;;8.90;;
11839;SDS011;5979;50.800;4.904;2023-03-08T08:12:06;11.30;;;8.83;;
11839;SDS011;5979;50.800;4.904;2023-03-08T08:14:32;12.90;;;9.37;;
11839;SDS011;5979;50.800;4.904;2023-03-08T08:16:58;11.73;;;8.87;;
11839;SDS011;5979;50.800;4.904;2023-03-08T08:19:24;13.37;;;8.80;;
11839;SDS011;5979;50.800;4.904;2023-03-08T08:21:51;15.30;;;9.70;;
11839;SDS011;5979;50.800;4.904;2023-03-08T08:24:16;15.73;;;9.47;;
11839;SDS011;5979;50.800;4.904;2023-03-08T08:26:42;17.63;;;10.97;;
11839;SDS011;5979;50.800;4.904;2023-03-08T08:29:08;13.47;;;9.90;;
11839;SDS011;5979;50.800;4.904;2023-03-08T08:31:33;15.87;;;10.53;;
11839;SDS011;5979;50.800;4.904;2023-03-08T08:33:59;16.63;;;9.77;;
11839;SDS011;5979;50.800;4.904;2023-03-08T08:36:25;16.60;;;10.17;;
11839;SDS011;5979;50.800;4.904;2023-03-08T08:38:52;15.67;;;9.40;;
11839;SDS011;5979;50.800;4.904;2023-03-08T08:41:19;11.27;;;8.03;;
11839;SDS011;5979;50.800;4.904;2023-03-08T08:43:46;12.60;;;8.27;;
11839;SDS011;5979;50.800;4.904;2023-03-08T08:46:12;12.53;;;8.23;;
11839;SDS011;5979;50.800;4.904;2023-03-08T08:48:39;15.60;;;9.50;;
11839;SDS011;5979;50.800;4.904;2023-03-08T08:51:06;13.17;;;8.50;;
11839;SDS011;5979;50.800;4.904;2023-03-08T08:53:33;11.87;;;8.27;;
11839;SDS011;5979;50.800;4.904;2023-03-08T08:56:08;8.83;;;7.43;;
11839;SDS011;5979;50.800;4.904;2023-03-08T08:58:42;10.47;;;7.80;;
11839;SDS011;5979;50.800;4.904;2023-03-08T09:01:11;9.70;;;7.23;;
11839;SDS011;5979;50.800;4.904;2023-03-08T09:03:40;10.57;;;7.43;;
11839;SDS011;5979;50.800;4.904;2023-03-08T09:06:06;7.20;;;6.33;;
11839;SDS011;5979;50.800;4.904;2023-03-08T09:08:32;8.50;;;7.17;;
11839;SDS011;5979;50.800;4.904;2023-03-08T09:11:01;9.07;;;7.00;;
11839;SDS011;5979;50.800;4.904;2023-03-08T09:13:28;9.43;;;7.07;;
11839;SDS011;5979;50.800;4.904;2023-03-08T09:15:54;9.10;;;7.43;;
11839;SDS011;5979;50.800;4.904;2023-03-08T09:18:20;9.00;;;7.03;;
11839;SDS011;5979;50.800;4.904;2023-03-08T09:20:45;7.70;;;6.73;;
11839;SDS011;5979;50.800;4.904;2023-03-08T09:23:11;7.37;;;6.67;;
11839;SDS011;5979;50.800;4.904;2023-03-08T09:25:37;9.30;;;6.43;;
11839;SDS011;5979;50.800;4.904;2023-03-08T09:28:02;7.63;;;6.53;;
11839;SDS011;5979;50.800;4.904;2023-03-08T09:30:28;6.70;;;6.00;;
11839;SDS011;5979;50.800;4.904;2023-03-08T09:32:57;7.50;;;6.70;;
11839;SDS011;5979;50.800;4.904;2023-03-08T09:35:23;6.17;;;5.63;;
11839;SDS011;5979;50.800;4.904;2023-03-08T09:37:54;7.43;;;6.63;;
11839;SDS011;5979;50.800;4.904;2023-03-08T09:40:20;6.70;;;5.77;;
11839;SDS011;5979;50.800;4.904;2023-03-08T09:45:51;10.03;;;7.00;;
11839;SDS011;5979;50.800;4.904;2023-03-08T09:48:25;7.20;;;6.50;;
11839;SDS011;5979;50.800;4.904;2023-03-08T09:50:54;8.50;;;7.03;;
11839;SDS011;5979;50.800;4.904;2023-03-08T09:53:27;7.50;;;6.37;;
11839;SDS011;5979;50.800;4.904;2023-03-08T09:59:07;8.30;;;7.00;;
11839;SDS011;5979;50.800;4.904;2023-03-08T10:07:23;8.93;;;7.70;;
11839;SDS011;5979;50.800;4.904;2023-03-08T10:15:30;8.37;;;7.57;;
11839;SDS011;5979;50.800;4.904;2023-03-08T10:18:07;8.63;;;7.70;;
11839;SDS011;5979;50.800;4.904;2023-03-08T10:20:42;8.87;;;7.97;;
11839;SDS011;5979;50.800;4.904;2023-03-08T10:23:13;8.80;;;7.80;;
11839;SDS011;5979;50.800;4.904;2023-03-08T10:25:41;9.17;;;7.60;;
11839;SDS011;5979;50.800;4.904;2023-03-08T10:28:12;10.87;;;8.00;;
11839;SDS011;5979;50.800;4.904;2023-03-08T10:30:45;8.00;;;7.17;;
11839;SDS011;5979;50.800;4.904;2023-03-08T10:33:31;8.43;;;7.63;;
11839;SDS011;5979;50.800;4.904;2023-03-08T10:36:05;8.57;;;7.67;;
11839;SDS011;5979;50.800;4.904;2023-03-08T10:38:36;8.47;;;7.63;;
11839;SDS011;5979;50.800;4.904;2023-03-08T10:43:44;8.70;;;7.57;;
11839;SDS011;5979;50.800;4.904;2023-03-08T10:46:25;8.00;;;7.20;;
11839;SDS011;5979;50.800;4.904;2023-03-08T10:49:04;9.20;;;7.73;;
11839;SDS011;5979;50.800;4.904;2023-03-08T10:51:31;8.70;;;7.63;;
11839;SDS011;5979;50.800;4.904;2023-03-08T10:53:58;8.33;;;7.53;;
11839;SDS011;5979;50.800;4.904;2023-03-08T10:56:30;10.13;;;8.30;;
11839;SDS011;5979;50.800;4.904;2023-03-08T10:58:58;9.70;;;8.63;;
11839;SDS011;5979;50.800;4.904;2023-03-08T11:04:05;9.60;;;7.73;;
11839;SDS011;5979;50.800;4.904;2023-03-08T11:06:39;10.07;;;8.60;;
11839;SDS011;5979;50.800;4.904;2023-03-08T11:09:18;8.77;;;7.87;;
11839;SDS011;5979;50.800;4.904;2023-03-08T11:11:52;8.80;;;7.87;;
11839;SDS011;5979;50.800;4.904;2023-03-08T11:14:19;9.50;;;8.23;;
11839;SDS011;5979;50.800;4.904;2023-03-08T11:19:41;8.83;;;7.60;;
11839;SDS011;5979;50.800;4.904;2023-03-08T11:27:42;8.83;;;7.73;;
11839;SDS011;5979;50.800;4.904;2023-03-08T11:40:30;8.23;;;7.43;;
11839;SDS011;5979;50.800;4.904;2023-03-08T11:45:59;8.20;;;7.20;;
11839;SDS011;5979;50.800;4.904;2023-03-08T11:48:36;8.43;;;7.57;;
11839;SDS011;5979;50.800;4.904;2023-03-08T11:59:18;9.37;;;8.23;;
11839;SDS011;5979;50.800;4.904;2023-03-08T12:01:56;8.97;;;8.07;;
11839;SDS011;5979;50.800;4.904;2023-03-08T12:04:29;9.47;;;8.57;;
11839;SDS011;5979;50.800;4.904;2023-03-08T12:06:56;9.97;;;8.83;;
11839;SDS011;5979;50.800;4.904;2023-03-08T12:12:26;9.50;;;8.50;;
11839;SDS011;5979;50.800;4.904;2023-03-08T12:15:04;10.30;;;9.03;;
11839;SDS011;5979;50.800;4.904;2023-03-08T12:17:43;9.93;;;8.93;;
11839;SDS011;5979;50.800;4.904;2023-03-08T12:20:19;11.20;;;9.67;;
11839;SDS011;5979;50.800;4.904;2023-03-08T12:22:56;10.63;;;9.57;;
11839;SDS011;5979;50.800;4.904;2023-03-08T12:25:29;10.50;;;8.93;;
11839;SDS011;5979;50.800;4.904;2023-03-08T12:33:49;11.37;;;9.83;;
11839;SDS011;5979;50.800;4.904;2023-03-08T12:36:18;11.13;;;9.70;;
11839;SDS011;5979;50.800;4.904;2023-03-08T12:38:46;12.33;;;10.40;;
11839;SDS011;5979;50.800;4.904;2023-03-08T12:41:29;10.17;;;9.13;;
11839;SDS011;5979;50.800;4.904;2023-03-08T12:44:03;10.20;;;8.83;;
11839;SDS011;5979;50.800;4.904;2023-03-08T12:46:50;10.60;;;9.33;;
11839;SDS011;5979;50.800;4.904;2023-03-08T12:49:35;10.73;;;9.00;;
11839;SDS011;5979;50.800;4.904;2023-03-08T12:52:21;9.87;;;8.87;;
11839;SDS011;5979;50.800;4.904;2023-03-08T12:57:29;11.33;;;9.53;;
11839;SDS011;5979;50.800;4.904;2023-03-08T13:00:06;9.87;;;8.87;;
11839;SDS011;5979;50.800;4.904;2023-03-08T13:13:27;10.83;;;9.60;;
11839;SDS011;5979;50.800;4.904;2023-03-08T13:21:51;12.50;;;9.90;;
11839;SDS011;5979;50.800;4.904;2023-03-08T13:32:53;13.80;;;10.20;;
11839;SDS011;5979;50.800;4.904;2023-03-08T13:35:19;13.80;;;10.47;;
11839;SDS011;5979;50.800;4.904;2023-03-08T13:37:53;12.53;;;10.10;;
11839;SDS011;5979;50.800;4.904;2023-03-08T13:40:21;15.63;;;11.60;;
11839;SDS011;5979;50.800;4.904;2023-03-08T13:42:51;13.20;;;10.63;;
11839;SDS011;5979;50.800;4.904;2023-03-08T13:45:18;12.77;;;10.53;;
11839;SDS011;5979;50.800;4.904;2023-03-08T13:47:44;12.37;;;10.40;;
11839;SDS011;5979;50.800;4.904;2023-03-08T13:50:25;15.20;;;11.23;;
11839;SDS011;5979;50.800;4.904;2023-03-08T13:52:57;14.97;;;11.43;;
11839;SDS011;5979;50.800;4.904;2023-03-08T13:55:32;14.00;;;11.03;;
11839;SDS011;5979;50.800;4.904;2023-03-08T13:58:04;16.77;;;11.87;;
11839;SDS011;5979;50.800;4.904;2023-03-08T14:00:31;16.13;;;12.20;;
11839;SDS011;5979;50.800;4.904;2023-03-08T14:02:59;16.67;;;12.50;;
11839;SDS011;5979;50.800;4.904;2023-03-08T14:05:27;16.47;;;12.47;;
11839;SDS011;5979;50.800;4.904;2023-03-08T14:08:37;17.13;;;12.90;;
11839;SDS011;5979;50.800;4.904;2023-03-08T14:10:48;16.83;;;12.03;;
11839;SDS011;5979;50.800;4.904;2023-03-08T14:13:36;15.27;;;12.00;;
11839;SDS011;5979;50.800;4.904;2023-03-08T14:16:03;15.70;;;12.67;;
11839;SDS011;5979;50.800;4.904;2023-03-08T14:18:40;17.30;;;12.97;;
11839;SDS011;5979;50.800;4.904;2023-03-08T14:21:23;20.13;;;14.57;;
11839;SDS011;5979;50.800;4.904;2023-03-08T14:23:55;22.17;;;15.50;;
11839;SDS011;5979;50.800;4.904;2023-03-08T14:34:38;21.90;;;16.13;;
11839;SDS011;5979;50.800;4.904;2023-03-08T14:39:37;23.53;;;15.67;;
11839;SDS011;5979;50.800;4.904;2023-03-08T14:47:47;23.27;;;16.80;;
11839;SDS011;5979;50.800;4.904;2023-03-08T14:50:19;26.73;;;17.40;;
11839;SDS011;5979;50.800;4.904;2023-03-08T14:52:57;23.07;;;16.17;;
11839;SDS011;5979;50.800;4.904;2023-03-08T14:55:31;22.47;;;16.87;;
11839;SDS011;5979;50.800;4.904;2023-03-08T14:58:00;25.13;;;17.37;;
11839;SDS011;5979;50.800;4.904;2023-03-08T15:00:28;23.30;;;16.07;;
11839;SDS011;5979;50.800;4.904;2023-03-08T15:02:56;23.50;;;16.63;;
11839;SDS011;5979;50.800;4.904;2023-03-08T15:05:23;24.20;;;16.23;;
11839;SDS011;5979;50.800;4.904;2023-03-08T15:07:50;24.27;;;15.67;;
11839;SDS011;5979;50.800;4.904;2023-03-08T15:10:19;21.20;;;15.20;;
11839;SDS011;5979;50.800;4.904;2023-03-08T15:12:54;20.33;;;14.00;;
11839;SDS011;5979;50.800;4.904;2023-03-08T15:15:20;21.63;;;14.93;;
11839;SDS011;5979;50.800;4.904;2023-03-08T15:17:46;20.57;;;14.23;;
11839;SDS011;5979;50.800;4.904;2023-03-08T15:20:12;21.27;;;15.33;;
11839;SDS011;5979;50.800;4.904;2023-03-08T15:22:43;19.23;;;13.97;;
11839;SDS011;5979;50.800;4.904;2023-03-08T15:25:15;19.67;;;14.70;;
11839;SDS011;5979;50.800;4.904;2023-03-08T15:27:45;20.73;;;14.73;;
11839;SDS011;5979;50.800;4.904;2023-03-08T15:30:14;21.63;;;15.70;;
11839;SDS011;5979;50.800;4.904;2023-03-08T15:32:42;22.70;;;15.97;;
11839;SDS011;5979;50.800;4.904;2023-03-08T15:35:08;22.00;;;15.80;;
11839;SDS011;5979;50.800;4.904;2023-03-08T15:37:34;21.37;;;15.73;;
11839;SDS011;5979;50.800;4.904;2023-03-08T15:40:00;20.70;;;15.27;;
11839;SDS011;5979;50.800;4.904;2023-03-08T15:42:25;22.00;;;14.90;;
11839;SDS011;5979;50.800;4.904;2023-03-08T15:44:51;22.77;;;16.87;;
11839;SDS011;5979;50.800;4.904;2023-03-08T15:47:17;20.93;;;14.93;;
11839;SDS011;5979;50.800;4.904;2023-03-08T15:49:43;21.37;;;15.80;;
11839;SDS011;5979;50.800;4.904;2023-03-08T15:52:09;22.83;;;15.63;;
11839;SDS011;5979;50.800;4.904;2023-03-08T15:54:36;20.60;;;15.13;;
11839;SDS011;5979;50.800;4.904;2023-03-08T15:57:04;21.67;;;15.37;;
11839;SDS011;5979;50.800;4.904;2023-03-08T15:59:30;22.97;;;16.17;;
11839;SDS011;5979;50.800;4.904;2023-03-08T16:01:55;24.47;;;15.60;;
11839;SDS011;5979;50.800;4.904;2023-03-08T16:04:21;22.03;;;15.33;;
11839;SDS011;5979;50.800;4.904;2023-03-08T16:06:47;21.63;;;15.23;;
11839;SDS011;5979;50.800;4.904;2023-03-08T16:09:13;23.77;;;16.57;;
11839;SDS011;5979;50.800;4.904;2023-03-08T16:11:38;24.90;;;17.17;;
11839;SDS011;5979;50.800;4.904;2023-03-08T16:14:04;21.77;;;16.23;;
11839;SDS011;5979;50.800;4.904;2023-03-08T16:16:30;24.03;;;16.50;;
11839;SDS011;5979;50.800;4.904;2023-03-08T16:18:56;23.40;;;16.60;;
11839;SDS011;5979;50.800;4.904;2023-03-08T16:21:22;21.30;;;15.60;;
11839;SDS011;5979;50.800;4.904;2023-03-08T16:23:48;21.93;;;14.77;;
11839;SDS011;5979;50.800;4.904;2023-03-08T16:26:14;23.67;;;16.53;;
11839;SDS011;5979;50.800;4.904;2023-03-08T16:28:40;24.50;;;16.50;;
11839;SDS011;5979;50.800;4.904;2023-03-08T16:31:07;22.87;;;15.73;;
11839;SDS011;5979;50.800;4.904;2023-03-08T16:33:33;25.80;;;16.97;;
11839;SDS011;5979;50.800;4.904;2023-03-08T16:35:59;24.50;;;15.40;;
11839;SDS011;5979;50.800;4.904;2023-03-08T16:38:25;25.10;;;16.70;;
11839;SDS011;5979;50.800;4.904;2023-03-08T16:40:50;24.23;;;16.77;;
11839;SDS011;5979;50.800;4.904;2023-03-08T16:43:16;22.30;;;16.13;;
11839;SDS011;5979;50.800;4.904;2023-03-08T16:45:58;24.87;;;16.90;;
11839;SDS011;5979;50.800;4.904;2023-03-08T16:48:25;24.50;;;16.10;;
11839;SDS011;5979;50.800;4.904;2023-03-08T16:50:54;24.00;;;17.27;;
11839;SDS011;5979;50.800;4.904;2023-03-08T16:53:21;26.07;;;16.93;;